sensor_id;sensor_type;location;lat;lon;timestamp;P1;durP1;ratioP1;P2;durP2;ratioP2
49241;SDS011;35079;52.704;13.814;2022-09-17T00:00:15;1.30;;;1.10;;
49241;SDS011;35079;52.704;13.814;2022-09-17T00:02:41;1.30;;;1.15;;
49241;SDS011;35079;52.704;13.814;2022-09-17T00:05:11;1.10;;;1.02;;
49241;SDS011;35079;52.704;13.814;2022-09-17T00:07:37;2.35;;;1.40;;
49241;SDS011;35079;52.704;13.814;2022-09-17T00:10:03;2.72;;;1.23;;
49241;SDS011;35079;52.704;13.814;2022-09-17T00:12:29;3.53;;;1.10;;
49241;SDS011;35079;52.704;13.814;2022-09-17T00:14:56;2.22;;;1.58;;
49241;SDS011;35079;52.704;13.814;2022-09-17T00:17:24;2.60;;;1.38;;
49241;SDS011;35079;52.704;13.814;2022-09-17T00:19:50;3.20;;;1.48;;
49241;SDS011;35079;52.704;13.814;2022-09-17T00:22:16;2.35;;;1.45;;
49241;SDS011;35079;52.704;13.814;2022-09-17T00:24:41;1.77;;;1.30;;
49241;SDS011;35079;52.704;13.814;2022-09-17T00:27:07;1.50;;;1.40;;
49241;SDS011;35079;52.704;13.814;2022-09-17T00:29:33;1.30;;;1.20;;
49241;SDS011;35079;52.704;13.814;2022-09-17T00:31:58;2.40;;;1.30;;
49241;SDS011;35079;52.704;13.814;2022-09-17T00:34:24;2.63;;;1.48;;
49241;SDS011;35079;52.704;13.814;2022-09-17T00:36:50;2.60;;;1.58;;
49241;SDS011;35079;52.704;13.814;2022-09-17T00:39:15;3.75;;;1.58;;
49241;SDS011;35079;52.704;13.814;2022-09-17T00:41:41;2.78;;;1.50;;
49241;SDS011;35079;52.704;13.814;2022-09-17T00:47:04;1.73;;;1.60;;
49241;SDS011;35079;52.704;13.814;2022-09-17T00:49:36;3.78;;;1.67;;
49241;SDS011;35079;52.704;13.814;2022-09-17T00:52:04;3.90;;;1.80;;
49241;SDS011;35079;52.704;13.814;2022-09-17T00:54:36;3.53;;;1.97;;
49241;SDS011;35079;52.704;13.814;2022-09-17T00:57:14;3.78;;;1.90;;
49241;SDS011;35079;52.704;13.814;2022-09-17T00:59:40;3.08;;;2.25;;
49241;SDS011;35079;52.704;13.814;2022-09-17T01:02:06;2.03;;;1.70;;
49241;SDS011;35079;52.704;13.814;2022-09-17T01:04:32;5.00;;;2.30;;
49241;SDS011;35079;52.704;13.814;2022-09-17T01:09:56;4.50;;;1.77;;
49241;SDS011;35079;52.704;13.814;2022-09-17T01:12:45;4.28;;;2.20;;
49241;SDS011;35079;52.704;13.814;2022-09-17T01:15:24;4.82;;;2.63;;
49241;SDS011;35079;52.704;13.814;2022-09-17T01:18:20;5.80;;;2.78;;
49241;SDS011;35079;52.704;13.814;2022-09-17T01:26:44;4.97;;;2.72;;
49241;SDS011;35079;52.704;13.814;2022-09-17T01:35:11;8.40;;;3.58;;
49241;SDS011;35079;52.704;13.814;2022-09-17T01:40:27;8.65;;;3.92;;
49241;SDS011;35079;52.704;13.814;2022-09-17T01:43:06;11.93;;;4.30;;
49241;SDS011;35079;52.704;13.814;2022-09-17T01:46:02;8.05;;;4.13;;
49241;SDS011;35079;52.704;13.814;2022-09-17T01:48:38;12.02;;;4.82;;
49241;SDS011;35079;52.704;13.814;2022-09-17T01:51:09;12.10;;;4.90;;
49241;SDS011;35079;52.704;13.814;2022-09-17T01:54:24;11.27;;;5.50;;
49241;SDS011;35079;52.704;13.814;2022-09-17T01:56:33;11.02;;;5.50;;
49241;SDS011;35079;52.704;13.814;2022-09-17T02:01:44;14.68;;;5.95;;
49241;SDS011;35079;52.704;13.814;2022-09-17T02:04:15;17.05;;;5.57;;
49241;SDS011;35079;52.704;13.814;2022-09-17T02:06:48;14.32;;;5.40;;
49241;SDS011;35079;52.704;13.814;2022-09-17T02:09:32;12.85;;;5.70;;
49241;SDS011;35079;52.704;13.814;2022-09-17T02:12:10;12.23;;;5.13;;
49241;SDS011;35079;52.704;13.814;2022-09-17T02:14:46;9.50;;;5.35;;
49241;SDS011;35079;52.704;13.814;2022-09-17T02:17:19;10.55;;;5.25;;
49241;SDS011;35079;52.704;13.814;2022-09-17T02:19:51;13.15;;;4.88;;
49241;SDS011;35079;52.704;13.814;2022-09-17T02:24:59;12.70;;;5.20;;
49241;SDS011;35079;52.704;13.814;2022-09-17T02:30:20;10.98;;;5.25;;
49241;SDS011;35079;52.704;13.814;2022-09-17T02:32:46;13.00;;;5.00;;
49241;SDS011;35079;52.704;13.814;2022-09-17T02:35:12;12.30;;;5.63;;
49241;SDS011;35079;52.704;13.814;2022-09-17T02:37:42;14.88;;;5.50;;
49241;SDS011;35079;52.704;13.814;2022-09-17T02:40:12;12.40;;;4.93;;
49241;SDS011;35079;52.704;13.814;2022-09-17T02:48:11;10.18;;;4.47;;
49241;SDS011;35079;52.704;13.814;2022-09-17T02:53:33;23.17;;;5.50;;
49241;SDS011;35079;52.704;13.814;2022-09-17T02:58:39;12.93;;;5.25;;
49241;SDS011;35079;52.704;13.814;2022-09-17T03:04:15;9.52;;;4.20;;
49241;SDS011;35079;52.704;13.814;2022-09-17T03:06:45;9.25;;;4.40;;
49241;SDS011;35079;52.704;13.814;2022-09-17T03:09:12;8.40;;;4.07;;
49241;SDS011;35079;52.704;13.814;2022-09-17T03:11:40;9.45;;;4.15;;
49241;SDS011;35079;52.704;13.814;2022-09-17T03:14:06;9.95;;;4.50;;
49241;SDS011;35079;52.704;13.814;2022-09-17T03:16:32;8.15;;;4.20;;
49241;SDS011;35079;52.704;13.814;2022-09-17T03:18:57;9.18;;;4.30;;
49241;SDS011;35079;52.704;13.814;2022-09-17T03:21:23;6.13;;;4.05;;
49241;SDS011;35079;52.704;13.814;2022-09-17T03:23:49;9.70;;;4.10;;
49241;SDS011;35079;52.704;13.814;2022-09-17T03:26:14;7.65;;;3.80;;
49241;SDS011;35079;52.704;13.814;2022-09-17T03:28:40;9.23;;;3.53;;
49241;SDS011;35079;52.704;13.814;2022-09-17T03:31:05;10.45;;;3.83;;
49241;SDS011;35079;52.704;13.814;2022-09-17T03:33:31;10.10;;;3.65;;
49241;SDS011;35079;52.704;13.814;2022-09-17T03:35:57;7.18;;;3.35;;
49241;SDS011;35079;52.704;13.814;2022-09-17T03:38:22;6.50;;;3.33;;
49241;SDS011;35079;52.704;13.814;2022-09-17T03:40:58;6.38;;;3.50;;
49241;SDS011;35079;52.704;13.814;2022-09-17T03:43:25;7.57;;;4.05;;
49241;SDS011;35079;52.704;13.814;2022-09-17T03:45:51;9.38;;;4.47;;
49241;SDS011;35079;52.704;13.814;2022-09-17T03:48:17;8.77;;;4.07;;
49241;SDS011;35079;52.704;13.814;2022-09-17T03:50:42;8.13;;;4.07;;
49241;SDS011;35079;52.704;13.814;2022-09-17T03:53:08;5.45;;;3.75;;
49241;SDS011;35079;52.704;13.814;2022-09-17T03:55:36;8.55;;;4.55;;
49241;SDS011;35079;52.704;13.814;2022-09-17T03:58:02;10.85;;;4.60;;
49241;SDS011;35079;52.704;13.814;2022-09-17T04:00:28;7.85;;;5.15;;
49241;SDS011;35079;52.704;13.814;2022-09-17T04:02:54;9.25;;;4.50;;
49241;SDS011;35079;52.704;13.814;2022-09-17T04:05:22;10.02;;;4.95;;
49241;SDS011;35079;52.704;13.814;2022-09-17T04:07:48;10.73;;;5.00;;
49241;SDS011;35079;52.704;13.814;2022-09-17T04:10:14;11.20;;;4.55;;
49241;SDS011;35079;52.704;13.814;2022-09-17T04:12:40;7.80;;;4.85;;
49241;SDS011;35079;52.704;13.814;2022-09-17T04:15:06;6.80;;;4.25;;
49241;SDS011;35079;52.704;13.814;2022-09-17T04:17:32;12.68;;;5.38;;
49241;SDS011;35079;52.704;13.814;2022-09-17T04:19:57;10.77;;;4.95;;
49241;SDS011;35079;52.704;13.814;2022-09-17T04:22:26;7.60;;;4.90;;
49241;SDS011;35079;52.704;13.814;2022-09-17T04:24:52;9.45;;;5.30;;
49241;SDS011;35079;52.704;13.814;2022-09-17T04:27:17;10.98;;;4.72;;
49241;SDS011;35079;52.704;13.814;2022-09-17T04:29:43;11.27;;;4.47;;
49241;SDS011;35079;52.704;13.814;2022-09-17T04:32:08;10.60;;;4.35;;
49241;SDS011;35079;52.704;13.814;2022-09-17T04:34:34;9.18;;;3.78;;
49241;SDS011;35079;52.704;13.814;2022-09-17T04:36:59;8.20;;;4.20;;
49241;SDS011;35079;52.704;13.814;2022-09-17T04:39:25;6.10;;;4.00;;
49241;SDS011;35079;52.704;13.814;2022-09-17T04:41:51;9.43;;;4.07;;
49241;SDS011;35079;52.704;13.814;2022-09-17T04:44:16;11.05;;;3.80;;
49241;SDS011;35079;52.704;13.814;2022-09-17T04:46:42;6.25;;;3.65;;
49241;SDS011;35079;52.704;13.814;2022-09-17T04:49:07;7.97;;;3.65;;
49241;SDS011;35079;52.704;13.814;2022-09-17T04:51:33;6.32;;;3.40;;
49241;SDS011;35079;52.704;13.814;2022-09-17T04:53:59;8.27;;;3.53;;
49241;SDS011;35079;52.704;13.814;2022-09-17T04:56:24;9.93;;;3.80;;
49241;SDS011;35079;52.704;13.814;2022-09-17T04:58:50;5.95;;;3.65;;
49241;SDS011;35079;52.704;13.814;2022-09-17T05:01:15;9.45;;;3.78;;
49241;SDS011;35079;52.704;13.814;2022-09-17T05:03:42;7.15;;;3.58;;
49241;SDS011;35079;52.704;13.814;2022-09-17T05:06:09;10.50;;;3.92;;
49241;SDS011;35079;52.704;13.814;2022-09-17T05:08:34;9.40;;;4.10;;
49241;SDS011;35079;52.704;13.814;2022-09-17T05:11:00;12.02;;;4.43;;
49241;SDS011;35079;52.704;13.814;2022-09-17T05:13:26;12.13;;;4.00;;
49241;SDS011;35079;52.704;13.814;2022-09-17T05:15:53;23.60;;;5.20;;
49241;SDS011;35079;52.704;13.814;2022-09-17T05:18:20;14.07;;;4.60;;
49241;SDS011;35079;52.704;13.814;2022-09-17T05:20:46;16.65;;;4.32;;
49241;SDS011;35079;52.704;13.814;2022-09-17T05:23:12;14.85;;;4.35;;
49241;SDS011;35079;52.704;13.814;2022-09-17T05:25:38;13.95;;;4.50;;
49241;SDS011;35079;52.704;13.814;2022-09-17T05:28:03;14.15;;;4.70;;
49241;SDS011;35079;52.704;13.814;2022-09-17T05:30:29;11.70;;;4.35;;
49241;SDS011;35079;52.704;13.814;2022-09-17T05:33:02;15.48;;;4.35;;
49241;SDS011;35079;52.704;13.814;2022-09-17T05:35:29;23.63;;;4.40;;
49241;SDS011;35079;52.704;13.814;2022-09-17T05:37:57;12.93;;;4.07;;
49241;SDS011;35079;52.704;13.814;2022-09-17T05:40:27;18.75;;;4.45;;
49241;SDS011;35079;52.704;13.814;2022-09-17T05:42:57;13.13;;;3.50;;
49241;SDS011;35079;52.704;13.814;2022-09-17T05:45:27;14.57;;;3.80;;
49241;SDS011;35079;52.704;13.814;2022-09-17T05:47:54;9.15;;;3.33;;
49241;SDS011;35079;52.704;13.814;2022-09-17T05:50:21;17.70;;;3.80;;
49241;SDS011;35079;52.704;13.814;2022-09-17T05:52:47;10.52;;;3.88;;
49241;SDS011;35079;52.704;13.814;2022-09-17T05:55:13;13.82;;;3.78;;
49241;SDS011;35079;52.704;13.814;2022-09-17T05:57:39;15.23;;;3.50;;
49241;SDS011;35079;52.704;13.814;2022-09-17T06:00:05;12.35;;;3.45;;
49241;SDS011;35079;52.704;13.814;2022-09-17T06:02:31;9.45;;;3.58;;
49241;SDS011;35079;52.704;13.814;2022-09-17T06:04:56;16.55;;;3.85;;
49241;SDS011;35079;52.704;13.814;2022-09-17T06:07:25;16.58;;;3.60;;
49241;SDS011;35079;52.704;13.814;2022-09-17T06:09:51;12.52;;;3.42;;
49241;SDS011;35079;52.704;13.814;2022-09-17T06:12:17;16.52;;;3.80;;
49241;SDS011;35079;52.704;13.814;2022-09-17T06:14:43;18.58;;;4.15;;
49241;SDS011;35079;52.704;13.814;2022-09-17T06:17:08;17.10;;;4.07;;
49241;SDS011;35079;52.704;13.814;2022-09-17T06:19:34;11.40;;;3.53;;
49241;SDS011;35079;52.704;13.814;2022-09-17T06:21:59;9.20;;;3.17;;
49241;SDS011;35079;52.704;13.814;2022-09-17T06:24:25;15.05;;;3.78;;
49241;SDS011;35079;52.704;13.814;2022-09-17T06:26:52;13.43;;;3.55;;
49241;SDS011;35079;52.704;13.814;2022-09-17T06:29:17;14.25;;;3.75;;
49241;SDS011;35079;52.704;13.814;2022-09-17T06:31:44;16.02;;;3.63;;
49241;SDS011;35079;52.704;13.814;2022-09-17T06:34:11;18.25;;;3.60;;
49241;SDS011;35079;52.704;13.814;2022-09-17T06:36:37;15.25;;;3.83;;
49241;SDS011;35079;52.704;13.814;2022-09-17T06:39:02;11.90;;;4.03;;
49241;SDS011;35079;52.704;13.814;2022-09-17T06:41:28;19.13;;;4.60;;
49241;SDS011;35079;52.704;13.814;2022-09-17T06:43:54;20.08;;;3.70;;
49241;SDS011;35079;52.704;13.814;2022-09-17T06:46:20;19.10;;;4.20;;
49241;SDS011;35079;52.704;13.814;2022-09-17T06:48:46;19.48;;;3.67;;
49241;SDS011;35079;52.704;13.814;2022-09-17T06:51:12;12.98;;;3.30;;
49241;SDS011;35079;52.704;13.814;2022-09-17T06:53:38;15.73;;;3.72;;
49241;SDS011;35079;52.704;13.814;2022-09-17T06:56:05;15.27;;;4.35;;
49241;SDS011;35079;52.704;13.814;2022-09-17T06:58:33;15.10;;;4.00;;
49241;SDS011;35079;52.704;13.814;2022-09-17T07:01:03;13.88;;;3.50;;
49241;SDS011;35079;52.704;13.814;2022-09-17T07:03:29;18.48;;;4.40;;
49241;SDS011;35079;52.704;13.814;2022-09-17T07:05:56;13.52;;;4.03;;
49241;SDS011;35079;52.704;13.814;2022-09-17T07:08:22;15.18;;;3.88;;
49241;SDS011;35079;52.704;13.814;2022-09-17T07:10:48;14.02;;;3.38;;
49241;SDS011;35079;52.704;13.814;2022-09-17T07:13:13;14.57;;;3.38;;
49241;SDS011;35079;52.704;13.814;2022-09-17T07:15:39;19.92;;;4.13;;
49241;SDS011;35079;52.704;13.814;2022-09-17T07:18:08;14.68;;;3.78;;
49241;SDS011;35079;52.704;13.814;2022-09-17T07:20:35;14.82;;;3.70;;
49241;SDS011;35079;52.704;13.814;2022-09-17T07:23:01;12.68;;;3.65;;
49241;SDS011;35079;52.704;13.814;2022-09-17T07:25:27;15.05;;;4.00;;
49241;SDS011;35079;52.704;13.814;2022-09-17T07:27:53;15.45;;;4.00;;
49241;SDS011;35079;52.704;13.814;2022-09-17T07:30:19;20.95;;;4.18;;
49241;SDS011;35079;52.704;13.814;2022-09-17T07:32:45;19.58;;;3.92;;
49241;SDS011;35079;52.704;13.814;2022-09-17T07:35:11;15.38;;;4.05;;
49241;SDS011;35079;52.704;13.814;2022-09-17T07:37:37;11.43;;;3.28;;
49241;SDS011;35079;52.704;13.814;2022-09-17T07:40:03;15.32;;;3.60;;
49241;SDS011;35079;52.704;13.814;2022-09-17T07:42:33;21.85;;;4.07;;
49241;SDS011;35079;52.704;13.814;2022-09-17T07:44:59;13.63;;;3.38;;
49241;SDS011;35079;52.704;13.814;2022-09-17T07:47:25;14.30;;;4.10;;
49241;SDS011;35079;52.704;13.814;2022-09-17T07:49:51;12.57;;;3.33;;
49241;SDS011;35079;52.704;13.814;2022-09-17T07:52:16;17.63;;;3.53;;
49241;SDS011;35079;52.704;13.814;2022-09-17T07:54:42;17.90;;;4.25;;
49241;SDS011;35079;52.704;13.814;2022-09-17T07:57:07;11.25;;;3.38;;
49241;SDS011;35079;52.704;13.814;2022-09-17T07:59:33;12.52;;;3.63;;
49241;SDS011;35079;52.704;13.814;2022-09-17T08:01:59;15.15;;;3.78;;
49241;SDS011;35079;52.704;13.814;2022-09-17T08:04:24;14.30;;;3.70;;
49241;SDS011;35079;52.704;13.814;2022-09-17T08:06:50;18.15;;;3.60;;
49241;SDS011;35079;52.704;13.814;2022-09-17T08:09:15;17.08;;;3.83;;
49241;SDS011;35079;52.704;13.814;2022-09-17T08:11:42;16.15;;;3.67;;
49241;SDS011;35079;52.704;13.814;2022-09-17T08:14:13;18.50;;;4.10;;
49241;SDS011;35079;52.704;13.814;2022-09-17T08:16:40;16.48;;;3.70;;
49241;SDS011;35079;52.704;13.814;2022-09-17T08:19:06;17.73;;;3.75;;
49241;SDS011;35079;52.704;13.814;2022-09-17T08:21:35;16.27;;;3.30;;
49241;SDS011;35079;52.704;13.814;2022-09-17T08:24:03;20.08;;;3.53;;
49241;SDS011;35079;52.704;13.814;2022-09-17T08:26:29;14.65;;;2.83;;
49241;SDS011;35079;52.704;13.814;2022-09-17T08:28:54;17.75;;;3.78;;
49241;SDS011;35079;52.704;13.814;2022-09-17T08:31:21;13.30;;;3.17;;
49241;SDS011;35079;52.704;13.814;2022-09-17T08:33:48;12.63;;;2.88;;
49241;SDS011;35079;52.704;13.814;2022-09-17T08:36:15;15.75;;;3.67;;
49241;SDS011;35079;52.704;13.814;2022-09-17T08:38:42;18.10;;;3.42;;
49241;SDS011;35079;52.704;13.814;2022-09-17T08:46:46;16.95;;;2.80;;
49241;SDS011;35079;52.704;13.814;2022-09-17T08:55:06;16.58;;;3.30;;
49241;SDS011;35079;52.704;13.814;2022-09-17T09:00:45;12.82;;;3.15;;
49241;SDS011;35079;52.704;13.814;2022-09-17T09:06:26;16.83;;;2.95;;
49241;SDS011;35079;52.704;13.814;2022-09-17T09:09:00;15.05;;;2.95;;
49241;SDS011;35079;52.704;13.814;2022-09-17T09:11:35;10.02;;;2.70;;
49241;SDS011;35079;52.704;13.814;2022-09-17T09:14:06;17.10;;;3.15;;
49241;SDS011;35079;52.704;13.814;2022-09-17T09:17:11;13.07;;;2.72;;
49241;SDS011;35079;52.704;13.814;2022-09-17T09:19:40;10.77;;;2.42;;
49241;SDS011;35079;52.704;13.814;2022-09-17T09:27:35;12.93;;;2.53;;
49241;SDS011;35079;52.704;13.814;2022-09-17T09:30:12;13.27;;;2.22;;
49241;SDS011;35079;52.704;13.814;2022-09-17T09:35:30;8.95;;;2.40;;
49241;SDS011;35079;52.704;13.814;2022-09-17T09:38:00;14.25;;;2.72;;
49241;SDS011;35079;52.704;13.814;2022-09-17T09:41:03;11.60;;;2.63;;
49241;SDS011;35079;52.704;13.814;2022-09-17T09:51:33;13.07;;;2.60;;
49241;SDS011;35079;52.704;13.814;2022-09-17T09:57:02;7.82;;;1.85;;
49241;SDS011;35079;52.704;13.814;2022-09-17T09:59:31;9.90;;;2.60;;
49241;SDS011;35079;52.704;13.814;2022-09-17T10:01:58;14.10;;;2.75;;
49241;SDS011;35079;52.704;13.814;2022-09-17T10:04:25;13.70;;;2.78;;
49241;SDS011;35079;52.704;13.814;2022-09-17T10:06:54;9.10;;;2.35;;
49241;SDS011;35079;52.704;13.814;2022-09-17T10:09:35;13.75;;;2.50;;
49241;SDS011;35079;52.704;13.814;2022-09-17T10:12:04;10.35;;;2.45;;
49241;SDS011;35079;52.704;13.814;2022-09-17T10:14:40;10.25;;;2.20;;
49241;SDS011;35079;52.704;13.814;2022-09-17T10:19:41;10.32;;;2.17;;
49241;SDS011;35079;52.704;13.814;2022-09-17T10:24:55;12.48;;;2.22;;
49241;SDS011;35079;52.704;13.814;2022-09-17T10:27:23;12.57;;;2.30;;
49241;SDS011;35079;52.704;13.814;2022-09-17T10:29:51;11.00;;;2.38;;
49241;SDS011;35079;52.704;13.814;2022-09-17T10:32:34;10.68;;;2.38;;
49241;SDS011;35079;52.704;13.814;2022-09-17T10:35:02;11.55;;;2.20;;
49241;SDS011;35079;52.704;13.814;2022-09-17T10:37:44;11.95;;;2.50;;
49241;SDS011;35079;52.704;13.814;2022-09-17T10:40:23;11.35;;;2.60;;
49241;SDS011;35079;52.704;13.814;2022-09-17T10:43:36;8.02;;;2.30;;
49241;SDS011;35079;52.704;13.814;2022-09-17T10:45:43;13.35;;;2.53;;
49241;SDS011;35079;52.704;13.814;2022-09-17T10:48:19;13.13;;;2.20;;
49241;SDS011;35079;52.704;13.814;2022-09-17T10:50:49;8.45;;;2.13;;
49241;SDS011;35079;52.704;13.814;2022-09-17T10:53:17;7.43;;;1.83;;
49241;SDS011;35079;52.704;13.814;2022-09-17T10:58:54;12.65;;;2.33;;
49241;SDS011;35079;52.704;13.814;2022-09-17T11:20:43;8.00;;;1.75;;
49241;SDS011;35079;52.704;13.814;2022-09-17T11:29:11;16.00;;;2.63;;
49241;SDS011;35079;52.704;13.814;2022-09-17T11:31:58;11.02;;;2.53;;
49241;SDS011;35079;52.704;13.814;2022-09-17T11:34:29;7.90;;;2.10;;
49241;SDS011;35079;52.704;13.814;2022-09-17T11:39:54;6.00;;;1.90;;
49241;SDS011;35079;52.704;13.814;2022-09-17T11:42:32;12.65;;;1.88;;
49241;SDS011;35079;52.704;13.814;2022-09-17T11:45:04;7.47;;;1.75;;
49241;SDS011;35079;52.704;13.814;2022-09-17T11:48:02;7.50;;;1.75;;
49241;SDS011;35079;52.704;13.814;2022-09-17T11:53:08;8.27;;;2.05;;
49241;SDS011;35079;52.704;13.814;2022-09-17T11:59:00;8.50;;;2.00;;
49241;SDS011;35079;52.704;13.814;2022-09-17T12:01:48;11.20;;;2.22;;
49241;SDS011;35079;52.704;13.814;2022-09-17T12:07:00;10.57;;;2.35;;
49241;SDS011;35079;52.704;13.814;2022-09-17T12:09:47;8.00;;;1.73;;
49241;SDS011;35079;52.704;13.814;2022-09-17T12:12:21;7.90;;;1.77;;
49241;SDS011;35079;52.704;13.814;2022-09-17T12:15:03;8.77;;;2.00;;
49241;SDS011;35079;52.704;13.814;2022-09-17T12:17:42;8.55;;;2.30;;
49241;SDS011;35079;52.704;13.814;2022-09-17T12:20:20;10.18;;;1.80;;
49241;SDS011;35079;52.704;13.814;2022-09-17T12:23:02;9.02;;;2.22;;
49241;SDS011;35079;52.704;13.814;2022-09-17T12:25:38;12.52;;;1.92;;
49241;SDS011;35079;52.704;13.814;2022-09-17T12:28:32;11.23;;;2.25;;
49241;SDS011;35079;52.704;13.814;2022-09-17T12:34:00;6.30;;;1.60;;
49241;SDS011;35079;52.704;13.814;2022-09-17T12:44:41;6.63;;;1.70;;
49241;SDS011;35079;52.704;13.814;2022-09-17T12:47:49;7.47;;;1.73;;
49241;SDS011;35079;52.704;13.814;2022-09-17T13:01:38;6.22;;;1.55;;
49241;SDS011;35079;52.704;13.814;2022-09-17T13:07:29;7.55;;;1.55;;
49241;SDS011;35079;52.704;13.814;2022-09-17T13:10:01;5.18;;;0.90;;
49241;SDS011;35079;52.704;13.814;2022-09-17T13:12:43;3.97;;;1.30;;
49241;SDS011;35079;52.704;13.814;2022-09-17T13:20:53;3.92;;;1.35;;
49241;SDS011;35079;52.704;13.814;2022-09-17T13:26:12;4.05;;;1.13;;
49241;SDS011;35079;52.704;13.814;2022-09-17T13:28:44;4.07;;;1.25;;
49241;SDS011;35079;52.704;13.814;2022-09-17T13:31:12;6.82;;;1.20;;
49241;SDS011;35079;52.704;13.814;2022-09-17T13:33:53;4.95;;;1.20;;
49241;SDS011;35079;52.704;13.814;2022-09-17T13:36:56;6.68;;;1.42;;
49241;SDS011;35079;52.704;13.814;2022-09-17T13:42:05;4.90;;;1.15;;
49241;SDS011;35079;52.704;13.814;2022-09-17T13:44:40;6.28;;;1.23;;
49241;SDS011;35079;52.704;13.814;2022-09-17T13:47:20;7.03;;;1.35;;
49241;SDS011;35079;52.704;13.814;2022-09-17T13:49:51;5.03;;;1.10;;
49241;SDS011;35079;52.704;13.814;2022-09-17T13:52:40;6.65;;;1.27;;
49241;SDS011;35079;52.704;13.814;2022-09-17T13:57:56;3.88;;;1.50;;
49241;SDS011;35079;52.704;13.814;2022-09-17T14:08:30;6.32;;;1.50;;
49241;SDS011;35079;52.704;13.814;2022-09-17T14:13:46;3.45;;;1.20;;
49241;SDS011;35079;52.704;13.814;2022-09-17T14:22:15;6.40;;;1.20;;
49241;SDS011;35079;52.704;13.814;2022-09-17T14:30:00;4.22;;;1.10;;
49241;SDS011;35079;52.704;13.814;2022-09-17T14:37:57;6.57;;;1.17;;
49241;SDS011;35079;52.704;13.814;2022-09-17T14:40:29;2.15;;;0.85;;
49241;SDS011;35079;52.704;13.814;2022-09-17T14:42:58;5.88;;;0.90;;
49241;SDS011;35079;52.704;13.814;2022-09-17T14:45:26;7.00;;;1.40;;
49241;SDS011;35079;52.704;13.814;2022-09-17T14:50:44;9.75;;;1.00;;
49241;SDS011;35079;52.704;13.814;2022-09-17T14:53:17;6.22;;;1.10;;
49241;SDS011;35079;52.704;13.814;2022-09-17T14:55:46;6.43;;;1.38;;
49241;SDS011;35079;52.704;13.814;2022-09-17T14:58:24;5.68;;;1.30;;
49241;SDS011;35079;52.704;13.814;2022-09-17T15:00:57;3.50;;;1.10;;
49241;SDS011;35079;52.704;13.814;2022-09-17T15:03:24;2.53;;;1.00;;
49241;SDS011;35079;52.704;13.814;2022-09-17T15:05:50;5.85;;;1.13;;
49241;SDS011;35079;52.704;13.814;2022-09-17T15:08:17;8.85;;;1.67;;
49241;SDS011;35079;52.704;13.814;2022-09-17T15:13:31;5.03;;;1.25;;
49241;SDS011;35079;52.704;13.814;2022-09-17T15:26:51;1.83;;;1.00;;
49241;SDS011;35079;52.704;13.814;2022-09-17T15:29:20;4.63;;;0.90;;
49241;SDS011;35079;52.704;13.814;2022-09-17T15:31:51;3.22;;;1.17;;
49241;SDS011;35079;52.704;13.814;2022-09-17T15:34:17;2.35;;;0.80;;
49241;SDS011;35079;52.704;13.814;2022-09-17T15:39:39;5.03;;;0.80;;
49241;SDS011;35079;52.704;13.814;2022-09-17T15:42:20;2.88;;;0.93;;
49241;SDS011;35079;52.704;13.814;2022-09-17T15:45:06;3.13;;;0.90;;
49241;SDS011;35079;52.704;13.814;2022-09-17T15:47:35;3.70;;;0.73;;
49241;SDS011;35079;52.704;13.814;2022-09-17T15:52:45;1.77;;;0.77;;
49241;SDS011;35079;52.704;13.814;2022-09-17T15:58:20;1.48;;;0.50;;
49241;SDS011;35079;52.704;13.814;2022-09-17T16:00:57;2.10;;;0.63;;
49241;SDS011;35079;52.704;13.814;2022-09-17T16:08:53;1.90;;;0.40;;
49241;SDS011;35079;52.704;13.814;2022-09-17T16:11:25;0.50;;;0.50;;
49241;SDS011;35079;52.704;13.814;2022-09-17T16:13:56;1.95;;;0.77;;
49241;SDS011;35079;52.704;13.814;2022-09-17T16:16:33;1.52;;;0.50;;
49241;SDS011;35079;52.704;13.814;2022-09-17T16:19:00;2.85;;;0.57;;
49241;SDS011;35079;52.704;13.814;2022-09-17T16:21:26;2.17;;;0.80;;
49241;SDS011;35079;52.704;13.814;2022-09-17T16:23:52;2.40;;;0.50;;
49241;SDS011;35079;52.704;13.814;2022-09-17T16:26:19;2.45;;;0.50;;
49241;SDS011;35079;52.704;13.814;2022-09-17T16:28:50;1.80;;;0.63;;
49241;SDS011;35079;52.704;13.814;2022-09-17T16:31:18;1.98;;;0.55;;
49241;SDS011;35079;52.704;13.814;2022-09-17T16:33:44;2.28;;;0.60;;
49241;SDS011;35079;52.704;13.814;2022-09-17T16:36:10;3.00;;;0.63;;
49241;SDS011;35079;52.704;13.814;2022-09-17T16:38:36;3.17;;;0.70;;
49241;SDS011;35079;52.704;13.814;2022-09-17T16:41:04;2.03;;;0.70;;
49241;SDS011;35079;52.704;13.814;2022-09-17T16:43:30;0.52;;;0.52;;
49241;SDS011;35079;52.704;13.814;2022-09-17T16:46:01;0.50;;;0.50;;
49241;SDS011;35079;52.704;13.814;2022-09-17T16:48:28;2.92;;;0.82;;
49241;SDS011;35079;52.704;13.814;2022-09-17T16:50:54;3.47;;;0.88;;
49241;SDS011;35079;52.704;13.814;2022-09-17T16:53:20;2.65;;;0.60;;
49241;SDS011;35079;52.704;13.814;2022-09-17T16:55:46;1.27;;;0.65;;
49241;SDS011;35079;52.704;13.814;2022-09-17T16:58:11;3.08;;;0.70;;
49241;SDS011;35079;52.704;13.814;2022-09-17T17:00:37;2.53;;;0.70;;
49241;SDS011;35079;52.704;13.814;2022-09-17T17:03:05;2.10;;;0.80;;
49241;SDS011;35079;52.704;13.814;2022-09-17T17:05:31;3.53;;;0.60;;
49241;SDS011;35079;52.704;13.814;2022-09-17T17:08:01;4.18;;;0.70;;
49241;SDS011;35079;52.704;13.814;2022-09-17T17:10:27;1.55;;;0.52;;
49241;SDS011;35079;52.704;13.814;2022-09-17T17:12:52;2.50;;;0.68;;
49241;SDS011;35079;52.704;13.814;2022-09-17T17:15:18;3.67;;;0.85;;
49241;SDS011;35079;52.704;13.814;2022-09-17T17:17:45;2.08;;;0.88;;
49241;SDS011;35079;52.704;13.814;2022-09-17T17:20:11;3.25;;;0.75;;
49241;SDS011;35079;52.704;13.814;2022-09-17T17:22:39;3.97;;;0.80;;
49241;SDS011;35079;52.704;13.814;2022-09-17T17:25:07;2.83;;;1.05;;
49241;SDS011;35079;52.704;13.814;2022-09-17T17:27:33;3.65;;;1.10;;
49241;SDS011;35079;52.704;13.814;2022-09-17T17:29:59;4.03;;;0.80;;
49241;SDS011;35079;52.704;13.814;2022-09-17T17:32:26;2.75;;;0.85;;
49241;SDS011;35079;52.704;13.814;2022-09-17T17:34:52;3.67;;;0.90;;
49241;SDS011;35079;52.704;13.814;2022-09-17T17:37:17;3.25;;;0.70;;
49241;SDS011;35079;52.704;13.814;2022-09-17T17:39:45;4.57;;;1.30;;
49241;SDS011;35079;52.704;13.814;2022-09-17T17:42:11;2.60;;;0.95;;
49241;SDS011;35079;52.704;13.814;2022-09-17T17:44:36;2.97;;;0.95;;
49241;SDS011;35079;52.704;13.814;2022-09-17T17:47:02;4.50;;;1.10;;
49241;SDS011;35079;52.704;13.814;2022-09-17T17:49:28;1.73;;;0.75;;
49241;SDS011;35079;52.704;13.814;2022-09-17T17:51:54;3.35;;;0.80;;
49241;SDS011;35079;52.704;13.814;2022-09-17T17:54:19;2.15;;;0.80;;
49241;SDS011;35079;52.704;13.814;2022-09-17T17:56:46;4.53;;;1.23;;
49241;SDS011;35079;52.704;13.814;2022-09-17T17:59:11;3.53;;;1.00;;
49241;SDS011;35079;52.704;13.814;2022-09-17T18:01:37;4.28;;;1.00;;
49241;SDS011;35079;52.704;13.814;2022-09-17T18:04:04;2.72;;;1.00;;
49241;SDS011;35079;52.704;13.814;2022-09-17T18:06:31;2.92;;;1.08;;
49241;SDS011;35079;52.704;13.814;2022-09-17T18:08:58;3.30;;;0.98;;
49241;SDS011;35079;52.704;13.814;2022-09-17T18:11:24;2.40;;;1.00;;
49241;SDS011;35079;52.704;13.814;2022-09-17T18:13:51;4.80;;;1.20;;
49241;SDS011;35079;52.704;13.814;2022-09-17T18:16:18;4.85;;;1.10;;
49241;SDS011;35079;52.704;13.814;2022-09-17T18:18:45;4.32;;;0.93;;
49241;SDS011;35079;52.704;13.814;2022-09-17T18:21:12;3.63;;;1.40;;
49241;SDS011;35079;52.704;13.814;2022-09-17T18:23:40;4.00;;;1.30;;